Terminal Aerodrome Forecast
Issued by NWS

Current Version | Previous Version | Text Only | Print | Product List | Glossary On
Versions: 1 2 3 4 5 6 7 8 9 10 11 12 13 14 15 16 17 18 19 20 21 22 23
000
FTUS43 KPAH 272339
TAFCGI
TAF
KCGI 272339Z 2800/2824 19005KT P6SM FEW035 BKN300
     FM280100 19003KT P6SM SCT300
      TEMPO 2801/2804 5SM -SHRA BR BKN022
     FM280400 20001KT 6SM BR SCT012 BKN026
      TEMPO 2809/2813 4SM BR OVC015
     FM281300 19004KT P6SM OVC012
     FM281600 18010KT P6SM FEW025=

USA.gov is the U.S. government's official web portal to all federal, state and local government web resources and services.